Gravette, AR

3:52 PM CDT on May 25, 2015 (GMT -0500)
Smith | | Change Station
CLOSE
Current Station
Airport
Location: Siloam Springs,
Elevation: 1191 ft
Nearby Weather Stations

Elev 1191 ft 36.19 °N, 94.49 °W | Updated 37 minutes ago

Mostly Cloudy
Mostly Cloudy
81 °F
Feels Like 82 °F
N
13
Wind Variable Wind from South
Gusts 18 mph

Today
High -- | Low -- °F
--% Chance of Precip.
Yesterday
High -- | Low -- °F
Precip. -- in
6:04 AM 8:25 PM
First Quarter, 51% visible
Pressure 29.93 in
Visibility 10.0 miles
Clouds Few 6000 ft
Heat Index 82 °F
Dew Point 64 °F
Humidity 58%
Rainfall 0.00 in
Snow Depth Not available.
UV 9 out of 12
Pollen 5.60 out of 12
Air Quality Not available.
Flu Activity No Activity
METAR KSLG 252015Z AUTO 19011G16KT 10SM FEW060 27/18 A2993 RMK AO1

More Conditions Fewer Conditions

Pressure 29.93 in
Visibility 10.0 miles
Clouds Few 6000 ft
Heat Index 82 °F
Dew Point 64 °F
Humidity 58%
Rainfall 0.00 in
Snow Depth Not available.
UV 9 out of 12
Pollen 5.60 out of 12
Air Quality Not available.
Flu Activity No Activity
METAR KSLG 252015Z AUTO 19011G16KT 10SM FEW060 27/18 A2993 RMK AO1

More Conditions Fewer Conditions

Nowcast | as of 3:38 PM CDT on May 25, 2015

At 3:38 PM...Doppler radars detected showers and thunderstorms across southeast Oklahoma...with additional isolated activity noted further north across northeast Oklahoma. All of this activity was lifting northeast at 30 to 40 mph. Through 5:00 PM...showers and thunderstorms will continue to lift northeast and increase in coverage for locations across southeast Oklahoma. Additional isolated activity may also occur north and east of this activity. Large hail...damaging winds and tornadoes are possible with the thunderstorms across southeast Oklahoma. The isolated activity north and east of these storms will likely result in short lived showers and storms...capable of producing locally heavy downpours and gusty winds. Residents across eastern Oklahoma and western Arkansas are urged to remain weather aware this afternoon and evening. A Tornado Watch is in effect for northwest Arkansas and a large part of eastern Oklahoma until 10 PM this evening.

×

10-Day Weather Forecast

Almanac

Astronomy

May. 25, 2015 Rise Set
Actual Time
Civil Twilight
Nautical Twilight
Astronomical Twilight
Moon
Length of Visible Light
Length of Day
Tomorrow will be .
, % of the Moon is Illuminated

Today's Extremes

State Highs State Lows

Community

WunderPhotos

Upload Photos

1,824,127 photos uploaded!

WunderBlogs® & News

Nearby

Air Quality

  Air Quality AQ Index Pollutant
Not available.

Snow Depth

Station Depth Elevation

Earthquake Activity

City Distance Mag. Time & Date
Minimum magnitude displayed is 2.5.

Coastal Water Temperatures

Place Temperature

Stations

Nearby Weather Stations

Station Location Temp. Windchill Dew Point Humidity Wind Precip. Elev Updated Type